Time;durP1;ratioP1;P1;durP2;ratioP2;P2;SDS_P1;SDS_P2;PMS_P1;PMS_P2;Temp;Humidity;BMP_temperature;BMP_pressure;BME280_temperature;BME280_humidity;BME280_pressure;Samples;Min_cycle;Max_cycle;Signal;HPM_P1;HPM_P2
2023/10/08 00:01:40;;;;;;;;;;;;;;;;;;5065544;28;19924;-63
2023/10/08 00:04:07;;;;;;;;;;;;;;;;;;5065407;28;19954;-63
2023/10/08 00:06:33;;;;;;;;;;;;;;;;;;5067041;28;20066;-62
2023/10/08 00:09:08;;;;;;;;;;;;;;;;;;5065585;28;19951;-63
2023/10/08 00:11:34;;;;;;;;;;;;;;;;;;5065911;28;19928;-64
2023/10/08 00:14:01;;;;;;;;;;;;;;;;;;5063778;28;19929;-63
2023/10/08 00:16:28;;;;;;;;;;;;;;;;;;5063949;28;20410;-62
2023/10/08 00:18:59;;;;;;;;;;;;;;;;;;5063073;28;20074;-59
2023/10/08 00:21:31;;;;;;;;;;;;;;;;;;5064462;28;19939;-63
2023/10/08 00:24:02;;;;;;;;;;;;;;;;;;5064362;28;19970;-64
2023/10/08 00:26:29;;;;;;;;;;;;;;;;;;5064883;28;19924;-62
2023/10/08 00:28:56;;;;;;;;;;;;;;;;;;5062972;28;19924;-63
2023/10/08 00:31:25;;;;;;;;;;;;;;;;;;5062266;28;19939;-62
2023/10/08 00:33:51;;;;;;;;;;;;;;;;;;5064747;28;21000;-63
2023/10/08 00:36:19;;;;;;;;;;;;;;;;;;5063954;28;20057;-63
2023/10/08 00:38:45;;;;;;;;;;;19.90;99.90;;;;;;5064783;28;19955;-63
2023/10/08 00:41:11;;;;;;;;;;;;;;;;;;5061968;28;20106;-63
2023/10/08 00:43:37;;;;;;;;;;;;;;;;;;5062631;28;20736;-63
2023/10/08 00:46:04;;;;;;;;;;;;;;;;;;5062400;28;19924;-63
2023/10/08 00:48:35;;;;;;;;;;;;;;;;;;5064311;28;19924;-63
2023/10/08 00:51:47;;;;;;;;;;;17.00;99.90;;;;;;5063930;28;19986;-62
2023/10/08 00:53:59;;;;;;;;;;;16.80;99.90;;;;;;5057653;28;20371;-62
2023/10/08 00:56:44;;;;;;;;;;;16.80;99.90;;;;;;5064151;28;20304;-63
2023/10/08 00:59:13;;;;;;;;;;;16.80;99.90;;;;;;5062854;28;20025;-64
2023/10/08 01:01:39;;;;;;;;;;;16.80;99.90;;;;;;5063992;28;19954;-63
2023/10/08 01:04:11;;;;;;;;;;;16.70;99.90;;;;;;5063484;28;20427;-64
2023/10/08 01:06:39;;;;;;;;;;;16.70;99.90;;;;;;5062573;28;19943;-63
2023/10/08 01:09:18;;;;;;;;;;;16.80;99.90;;;;;;5063529;28;19928;-64
2023/10/08 01:11:49;;;;;;;;;;;16.70;99.90;;;;;;5062468;28;19920;-64
2023/10/08 01:14:25;;;;;;;;;;;16.70;99.90;;;;;;5062913;28;19931;-63
2023/10/08 01:16:51;;;;;;;;;;;16.70;99.90;;;;;;5063182;28;19950;-64
2023/10/08 01:19:20;;;;;;;;;;;16.70;99.90;;;;;;5063045;28;20461;-64
2023/10/08 01:21:46;;;;;;;;;;;16.70;99.90;;;;;;5063693;28;20594;-63
2023/10/08 01:24:16;;;;;;;;;;;16.70;99.90;;;;;;5064200;28;19947;-64
2023/10/08 01:26:42;;;;;;;;;;;16.70;99.90;;;;;;5063794;28;19924;-64
2023/10/08 01:29:19;;;;;;;;;;;16.60;99.90;;;;;;5061667;28;19938;-63
2023/10/08 01:31:45;;;;;;;;;;;16.60;99.90;;;;;;5063463;28;20563;-63
2023/10/08 01:34:16;;;;;;;;;;;16.60;99.90;;;;;;5063392;28;19924;-64
2023/10/08 01:36:44;;;;;;;;;;;16.60;99.90;;;;;;5063951;28;20344;-64
2023/10/08 01:39:15;;;;;;;;;;;16.60;99.90;;;;;;5063395;28;20319;-63
2023/10/08 01:41:44;;;;;;;;;;;16.60;99.90;;;;;;5062563;28;19935;-63
2023/10/08 01:44:10;;;;;;;;;;;16.60;99.90;;;;;;5061137;28;19932;-63
2023/10/08 01:46:36;;;;;;;;;;;16.60;99.90;;;;;;5063479;28;20003;-63
2023/10/08 01:49:08;;;;;;;;;;;16.50;99.90;;;;;;5062649;28;19924;-64
2023/10/08 01:51:38;;;;;;;;;;;16.50;99.90;;;;;;5062724;28;20031;-63
2023/10/08 01:54:10;;;;;;;;;;;16.50;99.90;;;;;;5062909;28;20797;-63
2023/10/08 01:56:41;;;;;;;;;;;16.50;99.90;;;;;;5063399;28;19924;-63
2023/10/08 01:59:08;;;;;;;;;;;16.50;99.90;;;;;;5061181;28;19972;-64
2023/10/08 02:01:35;;;;;;;;;;;16.50;99.90;;;;;;5063251;28;20027;-63
2023/10/08 02:04:01;;;;;;;;;;;16.50;99.90;;;;;;5063289;28;19924;-63
2023/10/08 02:06:27;;;;;;;;;;;16.50;99.90;;;;;;5062731;28;19924;-63
2023/10/08 02:08:53;;;;;;;;;;;16.50;99.90;;;;;;5062428;28;19935;-63
2023/10/08 02:11:20;;;;;;;;;;;16.50;99.90;;;;;;5063271;28;19924;-64
2023/10/08 02:13:46;;;;;;;;;;;16.50;99.90;;;;;;5060276;28;19924;-63
2023/10/08 02:16:17;;;;;;;;;;;16.50;99.90;;;;;;5061951;28;19927;-63
2023/10/08 02:18:44;;;;;;;;;;;16.50;99.90;;;;;;5062824;28;19939;-63
2023/10/08 02:21:10;;;;;;;;;;;16.40;99.90;;;;;;5063258;28;20236;-63
2023/10/08 02:23:37;;;;;;;;;;;16.40;99.90;;;;;;5063047;28;19924;-63
2023/10/08 02:26:02;;;;;;;;;;;16.40;99.90;;;;;;5062862;28;19931;-64
2023/10/08 02:28:28;;;;;;;;;;;16.40;99.90;;;;;;5060470;28;19924;-63
2023/10/08 02:30:54;;;;;;;;;;;16.40;99.90;;;;;;5061910;28;19935;-63
2023/10/08 02:33:20;;;;;;;;;;;16.40;99.90;;;;;;5060961;28;19925;-63
2023/10/08 02:35:46;;;;;;;;;;;16.40;99.90;;;;;;5062084;28;20030;-64
2023/10/08 02:38:18;;;;;;;;;;;16.40;99.90;;;;;;5062279;28;19973;-63
2023/10/08 02:40:47;;;;;;;;;;;16.40;99.90;;;;;;5060369;28;20327;-64
2023/10/08 02:43:17;;;;;;;;;;;16.40;99.90;;;;;;5061466;28;20012;-63
2023/10/08 02:45:49;;;;;;;;;;;16.40;99.90;;;;;;5061716;28;19982;-62
2023/10/08 02:48:16;;;;;;;;;;;16.40;99.90;;;;;;5062245;28;19946;-64
2023/10/08 02:50:42;;;;;;;;;;;16.40;99.90;;;;;;5061414;28;19924;-64
2023/10/08 02:53:17;;;;;;;;;;;16.40;99.90;;;;;;5062229;28;19924;-63
2023/10/08 02:55:46;;;;;;;;;;;16.40;99.90;;;;;;5062132;28;20364;-63
2023/10/08 02:58:15;;;;;;;;;;;16.30;99.90;;;;;;5061627;28;19928;-63
2023/10/08 03:00:41;;;;;;;;;;;16.30;99.90;;;;;;5061451;28;20008;-63
2023/10/08 03:03:15;;;;;;;;;;;16.30;99.90;;;;;;5061444;28;20004;-63
2023/10/08 03:05:43;;;;;;;;;;;16.30;99.90;;;;;;5065732;28;20386;-63
2023/10/08 03:08:10;;;;;;;;;;;16.30;99.90;;;;;;5066394;28;19924;-64
2023/10/08 03:10:37;;;;;;;;;;;16.30;99.90;;;;;;5066149;28;19963;-63
2023/10/08 03:13:07;;;;;;;;;;;16.30;99.90;;;;;;5065120;28;20388;-63
2023/10/08 03:15:41;;;;;;;;;;;16.30;99.90;;;;;;5065662;28;19924;-63
2023/10/08 03:18:10;;;;;;;;;;;16.30;99.90;;;;;;5065343;28;20431;-63
2023/10/08 03:20:46;;;;;;;;;;;16.30;99.90;;;;;;5065664;28;19936;-63
2023/10/08 03:23:23;;;;;;;;;;;16.30;99.90;;;;;;5065447;28;19916;-63
2023/10/08 03:26:01;;;;;;;;;;;16.30;99.90;;;;;;5065592;28;19924;-63
2023/10/08 03:28:32;;;;;;;;;;;16.30;99.90;;;;;;5064628;28;20007;-63
2023/10/08 03:31:05;;;;;;;;;;;16.20;99.90;;;;;;5065218;28;19928;-63
2023/10/08 03:33:34;;;;;;;;;;;16.20;99.90;;;;;;5065159;28;19999;-63
2023/10/08 03:36:03;;;;;;;;;;;16.20;99.90;;;;;;5064879;28;19924;-63
2023/10/08 03:38:45;;;;;;;;;;;16.20;99.90;;;;;;5065296;28;20475;-63
2023/10/08 03:41:16;;;;;;;;;;;16.20;99.90;;;;;;5064972;28;20797;-63
2023/10/08 03:43:52;;;;;;;;;;;16.20;99.90;;;;;;5063837;28;20004;-64
2023/10/08 03:46:21;;;;;;;;;;;16.20;99.90;;;;;;5063262;28;19924;-63
2023/10/08 03:48:47;;;;;;;;;;;16.20;99.90;;;;;;5064622;28;19924;-63
2023/10/08 03:51:13;;;;;;;;;;;16.20;99.90;;;;;;5065485;28;19997;-63
2023/10/08 03:56:24;;;;;;;;;;;16.20;99.90;;;;;;5065299;28;20800;-63
2023/10/08 03:58:53;;;;;;;;;;;16.20;99.90;;;;;;5064588;28;19924;-63
2023/10/08 04:01:20;;;;;;;;;;;16.20;99.90;;;;;;5064790;28;19924;-63
2023/10/08 04:06:28;;;;;;;;;;;16.20;99.90;;;;;;5064520;28;19934;-63
2023/10/08 04:14:17;;;;;;;;;;;16.10;99.90;;;;;;5063661;28;19924;-63
2023/10/08 04:16:43;;;;;;;;;;;16.20;99.90;;;;;;5065367;28;19917;-63
2023/10/08 04:19:12;;;;;;;;;;;16.10;99.90;;;;;;5064722;28;19920;-63
2023/10/08 04:21:41;;;;;;;;;;;16.10;99.90;;;;;;5064901;28;20295;-63
2023/10/08 04:24:08;;;;;;;;;;;16.10;99.90;;;;;;5064316;28;19916;-63
2023/10/08 04:26:39;;;;;;;;;;;16.10;99.90;;;;;;5065015;28;20011;-63
2023/10/08 04:29:06;;;;;;;;;;;16.10;99.90;;;;;;5061230;28;20020;-64
2023/10/08 04:31:38;;;;;;;;;;;16.10;99.90;;;;;;5064600;28;20322;-64
2023/10/08 04:34:15;;;;;;;;;;;16.10;99.90;;;;;;5064254;28;20015;-63
2023/10/08 04:36:45;;;;;;;;;;;16.10;99.90;;;;;;5064423;28;20007;-63
2023/10/08 04:39:15;;;;;;;;;;;16.10;99.90;;;;;;5063801;28;19928;-63
2023/10/08 04:41:45;;;;;;;;;;;16.10;99.90;;;;;;5063930;28;20415;-62
2023/10/08 04:44:14;;;;;;;;;;;16.10;99.90;;;;;;5062336;28;19928;-64
2023/10/08 04:49:26;;;;;;;;;;;16.10;99.90;;;;;;5063138;28;19931;-63
2023/10/08 04:51:56;;;;;;;;;;;16.10;99.90;;;;;;5063852;28;20344;-63
2023/10/08 04:54:31;;;;;;;;;;;16.10;99.90;;;;;;5063683;28;19964;-63
2023/10/08 04:56:58;;;;;;;;;;;16.10;99.90;;;;;;5062405;28;20020;-64
2023/10/08 04:59:32;;;;;;;;;;;16.10;99.90;;;;;;5063162;28;19929;-64
2023/10/08 05:07:26;;;;;;;;;;;16.00;99.90;;;;;;5063562;28;19925;-63
2023/10/08 05:10:11;;;;;;;;;;;16.00;99.90;;;;;;5063446;28;19935;-63
2023/10/08 05:12:37;;;;;;;;;;;16.00;99.90;;;;;;5063626;28;20710;-63
2023/10/08 05:18:51;;;;;;;;;;;16.00;99.90;;;;;;5063555;28;19924;-63
2023/10/08 05:23:20;;;;;;;;;;;16.00;99.90;;;;;;5063502;28;19946;-63
2023/10/08 05:28:29;;;;;;;;;;;16.00;99.90;;;;;;5062837;28;20300;-63
2023/10/08 05:31:11;;;;;;;;;;;16.00;99.90;;;;;;5062919;28;19932;-63
2023/10/08 05:42:06;;;;;;;;;;;15.90;99.90;;;;;;5062521;28;20453;-63
2023/10/08 05:44:40;;;;;;;;;;;15.90;99.90;;;;;;5062192;28;19970;-63
2023/10/08 05:47:22;;;;;;;;;;;15.90;99.90;;;;;;5060903;28;20592;-63
2023/10/08 05:52:50;;;;;;;;;;;15.90;99.90;;;;;;5050957;28;19928;-63
2023/10/08 05:55:26;;;;;;;;;;;15.80;99.90;;;;;;5062997;28;19924;-63
2023/10/08 05:58:13;;;;;;;;;;;15.90;99.90;;;;;;5062723;28;19993;-63
2023/10/08 06:00:46;;;;;;;;;;;15.90;99.90;;;;;;5061998;28;20328;-63
2023/10/08 06:11:55;;;;;;;;;;;15.80;99.90;;;;;;5062052;28;20177;-63
2023/10/08 06:17:33;;;;;;;;;;;15.80;99.90;;;;;;5062191;28;20392;-63
2023/10/08 06:20:16;;;;;;;;;;;15.80;99.90;;;;;;5062493;28;20307;-63
2023/10/08 06:22:42;;;;;;;;;;;15.80;99.90;;;;;;5062478;28;19959;-62
2023/10/08 06:25:18;;;;;;;;;;;15.80;99.90;;;;;;5062252;28;19963;-62
2023/10/08 06:27:46;;;;;;;;;;;15.80;99.90;;;;;;5061490;28;20427;-62
2023/10/08 06:30:16;;;;;;;;;;;15.80;99.90;;;;;;5061139;28;20368;-64
2023/10/08 06:32:44;;;;;;;;;;;15.80;99.90;;;;;;5061821;28;20278;-63
2023/10/08 06:35:17;;;;;;;;;;;15.80;99.90;;;;;;5062178;28;19920;-63
2023/10/08 06:37:49;;;;;;;;;;;15.80;99.90;;;;;;5062619;28;20086;-63
2023/10/08 06:43:21;;;;;;;;;;;15.80;99.90;;;;;;5027031;28;21463;-63
2023/10/08 06:45:51;;;;;;;;;;;15.80;99.90;;;;;;5055587;28;19920;-63
2023/10/08 06:48:18;;;;;;;;;;;15.80;99.90;;;;;;5062096;28;19931;-63
2023/10/08 06:50:45;;;;;;;;;;;15.70;99.90;;;;;;5061687;28;19924;-61
2023/10/08 06:53:13;;;;;;;;;;;15.80;99.90;;;;;;5060451;28;19977;-63
2023/10/08 06:55:43;;;;;;;;;;;15.70;99.90;;;;;;5062558;28;19931;-63
2023/10/08 06:58:09;;;;;;;;;;;15.80;99.90;;;;;;5061429;28;19920;-63
2023/10/08 07:00:48;;;;;;;;;;;15.80;99.90;;;;;;5061976;28;19924;-63
2023/10/08 07:03:15;;;;;;;;;;;15.80;99.90;;;;;;5061766;28;19939;-63
2023/10/08 07:05:41;;;;;;;;;;;15.80;99.90;;;;;;5061853;28;20380;-63
2023/10/08 07:08:07;;;;;;;;;;;15.80;99.90;;;;;;5061554;28;19940;-62
2023/10/08 07:10:36;;;;;;;;;;;15.80;99.90;;;;;;5062049;28;19917;-63
2023/10/08 07:13:07;;;;;;;;;;;15.80;99.90;;;;;;5061231;28;19928;-63
2023/10/08 07:15:38;;;;;;;;;;;15.80;99.90;;;;;;5061558;28;20419;-63
2023/10/08 07:18:09;;;;;;;;;;;15.80;99.90;;;;;;5061452;28;19924;-62
2023/10/08 07:20:38;;;;;;;;;;;15.80;99.90;;;;;;5061428;28;19967;-63
2023/10/08 07:23:09;;;;;;;;;;;15.80;99.90;;;;;;5061833;28;19916;-63
2023/10/08 07:25:38;;;;;;;;;;;15.80;99.90;;;;;;5061678;28;19932;-63
2023/10/08 07:28:12;;;;;;;;;;;15.80;99.90;;;;;;5060227;28;19927;-62
2023/10/08 07:30:43;;;;;;;;;;;15.80;99.90;;;;;;5061298;28;19931;-63
2023/10/08 07:33:17;;;;;;;;;;;15.80;99.90;;;;;;5061166;28;19971;-63
2023/10/08 07:35:53;;;;;;;;;;;15.80;99.90;;;;;;5061213;28;20306;-63
2023/10/08 07:38:21;;;;;;;;;;;15.90;99.90;;;;;;5061699;28;19923;-63
2023/10/08 07:40:47;;;;;;;;;;;15.90;99.90;;;;;;5060963;28;19935;-64
2023/10/08 07:43:12;;;;;;;;;;;15.90;99.90;;;;;;5060632;28;19924;-63
2023/10/08 07:45:38;;;;;;;;;;;15.90;99.90;;;;;;5060986;28;19924;-64
2023/10/08 07:48:09;;;;;;;;;;;15.90;99.90;;;;;;5059825;28;19968;-64
2023/10/08 07:50:37;;;;;;;;;;;15.90;99.90;;;;;;5063315;28;19963;-64
2023/10/08 07:53:04;;;;;;;;;;;15.90;99.90;;;;;;5064807;28;19935;-64
2023/10/08 07:55:32;;;;;;;;;;;15.90;99.90;;;;;;5064746;28;19998;-64
2023/10/08 07:57:58;;;;;;;;;;;15.90;99.90;;;;;;5063931;28;20397;-64
2023/10/08 08:00:26;;;;;;;;;;;15.90;99.90;;;;;;5064688;28;20815;-63
2023/10/08 08:02:57;;;;;;;;;;;16.00;99.90;;;;;;5064644;28;19931;-63
2023/10/08 08:05:23;;;;;;;;;;;16.00;99.90;;;;;;5064410;28;19978;-63
2023/10/08 08:07:52;;;;;;;;;;;16.00;99.90;;;;;;5064943;28;19977;-64
2023/10/08 08:10:18;;;;;;;;;;;16.00;99.90;;;;;;5064238;28;19924;-64
2023/10/08 08:12:45;;;;;;;;;;;16.00;99.90;;;;;;5063944;28;20002;-63
2023/10/08 08:15:17;;;;;;;;;;;16.00;99.90;;;;;;5062009;28;20326;-64
2023/10/08 08:17:44;;;;;;;;;;;16.00;99.90;;;;;;5064117;28;19924;-64
2023/10/08 08:20:19;;;;;;;;;;;16.00;99.90;;;;;;5064079;28;20303;-63
2023/10/08 08:22:49;;;;;;;;;;;16.10;99.90;;;;;;5064593;28;19932;-63
2023/10/08 08:25:34;;;;;;;;;;;16.10;99.90;;;;;;5064738;28;19932;-64
2023/10/08 08:28:00;;;;;;;;;;;16.10;99.90;;;;;;5063273;28;20422;-64
2023/10/08 08:30:26;;;;;;;;;;;16.10;99.90;;;;;;5064750;28;19954;-64
2023/10/08 08:32:52;;;;;;;;;;;16.10;99.90;;;;;;5066432;28;19928;-64
2023/10/08 08:35:19;;;;;;;;;;;16.10;99.90;;;;;;5066363;28;19947;-64
2023/10/08 08:37:46;;;;;;;;;;;16.10;99.90;;;;;;5064765;28;20378;-63
2023/10/08 08:40:17;;;;;;;;;;;16.20;99.90;;;;;;5063154;28;19931;-64
2023/10/08 08:42:46;;;;;;;;;;;16.20;99.90;;;;;;5062689;28;19928;-64
2023/10/08 08:45:13;;;;;;;;;;;16.20;99.90;;;;;;5062929;28;20405;-64
2023/10/08 08:47:42;;;;;;;;;;;16.30;99.90;;;;;;5063378;28;19971;-63
2023/10/08 08:50:08;;;;;;;;;;;16.30;99.90;;;;;;5046087;28;20350;-63
2023/10/08 08:52:36;;;;;;;;;;;16.40;99.90;;;;;;5064823;28;19998;-63
2023/10/08 08:55:06;;;;;;;;;;;16.50;99.90;;;;;;5064474;28;19924;-64
2023/10/08 08:57:33;;;;;;;;;;;16.50;99.90;;;;;;5064226;28;19924;-64
2023/10/08 08:59:59;;;;;;;;;;;16.50;99.90;;;;;;5063148;28;20333;-64
2023/10/08 09:02:24;;;;;;;;;;;16.60;99.90;;;;;;5060483;28;19939;-64
2023/10/08 09:04:50;;;;;;;;;;;16.70;99.90;;;;;;5063001;28;19916;-63
2023/10/08 09:07:23;;;;;;;;;;;16.80;99.90;;;;;;5063431;28;20019;-64
2023/10/08 09:09:49;;;;;;;;;;;16.80;99.90;;;;;;5063203;28;20378;-64
2023/10/08 09:12:18;;;;;;;;;;;17.00;99.90;;;;;;5063255;28;19927;-64
2023/10/08 09:14:47;;;;;;;;;;;17.10;99.90;;;;;;5061737;28;20011;-64
2023/10/08 09:17:15;;;;;;;;;;;17.20;99.90;;;;;;5063347;28;19955;-64
2023/10/08 09:19:40;;;;;;;;;;;17.30;99.90;;;;;;5062715;28;19946;-64
2023/10/08 09:22:11;;;;;;;;;;;17.40;99.90;;;;;;5063381;28;20379;-63
2023/10/08 09:24:38;;;;;;;;;;;17.40;99.90;;;;;;5063170;28;20378;-64
2023/10/08 09:27:04;;;;;;;;;;;17.50;99.90;;;;;;5062988;28;19990;-64
2023/10/08 09:29:30;;;;;;;;;;;17.50;99.90;;;;;;5060258;28;20394;-64
2023/10/08 09:31:57;;;;;;;;;;;17.50;99.90;;;;;;5062973;28;20008;-64
2023/10/08 09:34:27;;;;;;;;;;;17.60;99.90;;;;;;5060930;28;20062;-63
2023/10/08 09:36:55;;;;;;;;;;;17.70;99.90;;;;;;5062814;28;19924;-63
2023/10/08 09:39:23;;;;;;;;;;;17.80;99.90;;;;;;5062296;28;20451;-63
2023/10/08 09:41:54;;;;;;;;;;;17.80;99.90;;;;;;5062019;28;19938;-63
2023/10/08 09:44:21;;;;;;;;;;;17.90;99.90;;;;;;5060970;28;19934;-64
2023/10/08 09:46:51;;;;;;;;;;;18.00;99.90;;;;;;5062809;28;20040;-66
2023/10/08 09:49:18;;;;;;;;;;;18.10;99.90;;;;;;5060763;28;19943;-64
2023/10/08 09:51:45;;;;;;;;;;;18.10;99.90;;;;;;5063031;28;20360;-64
2023/10/08 09:54:13;;;;;;;;;;;18.30;99.90;;;;;;5062553;28;20011;-64
2023/10/08 09:56:40;;;;;;;;;;;18.40;99.90;;;;;;5062880;28;20015;-63
2023/10/08 09:59:07;;;;;;;;;;;18.50;99.90;;;;;;5060202;28;20015;-64
2023/10/08 10:01:37;;;;;;;;;;;18.60;99.90;;;;;;5063194;28;20275;-64
2023/10/08 10:04:10;;;;;;;;;;;18.70;99.90;;;;;;5062841;28;19924;-64
2023/10/08 10:06:36;;;;;;;;;;;18.70;99.90;;;;;;5062646;28;19928;-64
2023/10/08 10:09:02;;;;;;;;;;;18.80;99.90;;;;;;5063260;28;19938;-64
2023/10/08 10:11:31;;;;;;;;;;;18.90;99.90;;;;;;5063027;28;19971;-64
2023/10/08 10:13:59;;;;;;;;;;;19.00;99.90;;;;;;5061463;28;20455;-64
2023/10/08 10:16:26;;;;;;;;;;;19.10;99.90;;;;;;5061970;28;19966;-63
2023/10/08 10:18:56;;;;;;;;;;;19.20;99.90;;;;;;5062286;28;19924;-63
2023/10/08 10:21:27;;;;;;;;;;;19.30;99.90;;;;;;5062715;28;20375;-63
2023/10/08 10:23:53;;;;;;;;;;;19.40;99.90;;;;;;5063099;28;19924;-63
2023/10/08 10:26:31;;;;;;;;;;;19.40;99.90;;;;;;5062520;28;19931;-63
2023/10/08 10:29:26;;;;;;;;;;;19.50;99.90;;;;;;5061682;28;20623;-64
2023/10/08 10:31:53;;;;;;;;;;;19.60;99.90;;;;;;5060966;28;19924;-63
2023/10/08 10:34:27;;;;;;;;;;;19.70;99.90;;;;;;5061759;28;19924;-64
2023/10/08 10:36:58;;;;;;;;;;;19.70;99.90;;;;;;5064171;28;20512;-63
2023/10/08 10:39:33;;;;;;;;;;;19.90;99.90;;;;;;5062994;28;20090;-64
2023/10/08 10:42:06;;;;;;;;;;;20.00;99.90;;;;;;5062036;28;19935;-64
2023/10/08 10:44:32;;;;;;;;;;;20.10;99.90;;;;;;5061799;28;20372;-64
2023/10/08 10:49:53;;;;;;;;;;;20.30;99.90;;;;;;5062379;28;19924;-64
2023/10/08 10:52:32;;;;;;;;;;;20.40;99.90;;;;;;5062565;28;19928;-64
2023/10/08 10:57:41;;;;;;;;;;;20.60;99.90;;;;;;5062332;28;19959;-63
2023/10/08 11:02:56;;;;;;;;;;;20.70;99.90;;;;;;5062509;28;20003;-63
2023/10/08 11:05:28;;;;;;;;;;;20.80;99.90;;;;;;5062637;28;19931;-64
2023/10/08 11:08:04;;;;;;;;;;;20.80;99.90;;;;;;5060953;28;20110;-64
2023/10/08 11:10:40;;;;;;;;;;;20.80;99.70;;;;;;5062317;28;19924;-63
2023/10/08 11:13:14;;;;;;;;;;;20.80;99.60;;;;;;5060667;28;19986;-64
2023/10/08 11:15:40;;;;;;;;;;;20.80;99.40;;;;;;5062076;28;19931;-64
2023/10/08 11:18:12;;;;;;;;;;;20.80;99.30;;;;;;5061885;28;19925;-64
2023/10/08 11:20:44;;;;;;;;;;;20.80;99.20;;;;;;5062161;28;20280;-64
2023/10/08 11:23:33;;;;;;;;;;;20.80;99.10;;;;;;5062242;28;19924;-64
2023/10/08 11:26:02;;;;;;;;;;;20.80;99.10;;;;;;5065532;28;20583;-64
2023/10/08 11:28:47;;;;;;;;;;;20.80;99.00;;;;;;5064592;28;20532;-64
2023/10/08 11:31:14;;;;;;;;;;;20.90;99.00;;;;;;5064404;28;19940;-64
2023/10/08 11:33:40;;;;;;;;;;;20.90;98.90;;;;;;5064073;28;19959;-63
2023/10/08 11:36:11;;;;;;;;;;;20.90;98.80;;;;;;5063999;28;19931;-64
2023/10/08 11:38:41;;;;;;;;;;;21.00;98.80;;;;;;5064198;28;19928;-65
2023/10/08 11:41:21;;;;;;;;;;;21.00;98.60;;;;;;5064130;28;20405;-64
2023/10/08 11:43:48;;;;;;;;;;;21.10;98.60;;;;;;5062957;28;20394;-64
2023/10/08 11:46:18;;;;;;;;;;;21.00;98.50;;;;;;5064104;28;20401;-64
2023/10/08 11:48:46;;;;;;;;;;;21.10;98.50;;;;;;5063370;28;20727;-64
2023/10/08 11:51:16;;;;;;;;;;;21.10;98.40;;;;;;5065038;28;19974;-64
2023/10/08 11:53:44;;;;;;;;;;;21.10;98.30;;;;;;5063659;28;20366;-64
2023/10/08 11:56:13;;;;;;;;;;;21.10;98.30;;;;;;5064476;28;20576;-64
2023/10/08 11:58:40;;;;;;;;;;;21.00;98.20;;;;;;5063048;28;19946;-64
2023/10/08 12:01:06;;;;;;;;;;;21.00;98.20;;;;;;5064172;28;19984;-64
2023/10/08 12:03:34;;;;;;;;;;;21.00;98.20;;;;;;5063146;28;19924;-64
2023/10/08 12:06:00;;;;;;;;;;;21.00;98.10;;;;;;5065008;28;20297;-65
2023/10/08 12:08:27;;;;;;;;;;;20.90;98.00;;;;;;5064323;28;19944;-64
2023/10/08 12:10:56;;;;;;;;;;;20.90;97.90;;;;;;5064653;28;19985;-64
2023/10/08 12:13:25;;;;;;;;;;;20.90;97.80;;;;;;5063676;28;20011;-64
2023/10/08 12:16:05;;;;;;;;;;;20.90;97.90;;;;;;5064458;28;19920;-63
2023/10/08 12:18:34;;;;;;;;;;;20.90;98.00;;;;;;5064522;28;20002;-64
2023/10/08 12:21:01;;;;;;;;;;;20.90;97.90;;;;;;5063961;28;19960;-64
2023/10/08 12:23:28;;;;;;;;;;;21.00;97.90;;;;;;5064643;28;19935;-64
2023/10/08 12:25:59;;;;;;;;;;;21.00;97.80;;;;;;5063976;28;19928;-64
2023/10/08 12:28:26;;;;;;;;;;;21.10;97.90;;;;;;5063115;28;19942;-64
2023/10/08 12:30:55;;;;;;;;;;;21.20;97.90;;;;;;5063989;28;19924;-63
2023/10/08 12:33:24;;;;;;;;;;;21.30;97.90;;;;;;5064451;28;20009;-63
2023/10/08 12:35:49;;;;;;;;;;;21.50;97.90;;;;;;5063513;28;19924;-63
2023/10/08 12:38:15;;;;;;;;;;;21.60;97.80;;;;;;5063351;28;19930;-64
2023/10/08 12:41:08;;;;;;;;;;;21.70;97.80;;;;;;5062601;28;19932;-64
2023/10/08 12:43:30;;;;;;;;;;;21.80;97.70;;;;;;5062856;28;20007;-64
2023/10/08 12:45:56;;;;;;;;;;;;;;;;;;5064145;28;19924;-64
2023/10/08 12:48:27;;;;;;;;;;;21.90;97.70;;;;;;5062928;28;20041;-64
2023/10/08 12:50:56;;;;;;;;;;;22.20;97.70;;;;;;5063862;28;19920;-65
2023/10/08 12:53:37;;;;;;;;;;;22.30;97.60;;;;;;5064596;28;19928;-64
2023/10/08 12:56:05;;;;;;;;;;;;;;;;;;5062384;28;19928;-64
2023/10/08 12:58:34;;;;;;;;;;;22.40;97.50;;;;;;5063252;28;20241;-65
2023/10/08 13:01:03;;;;;;;;;;;22.70;97.40;;;;;;5064422;28;19932;-63
2023/10/08 13:03:32;;;;;;;;;;;22.80;97.40;;;;;;5064202;28;19970;-64
2023/10/08 13:06:04;;;;;;;;;;;22.80;97.20;;;;;;5063611;28;20323;-64
2023/10/08 13:08:31;;;;;;;;;;;22.90;97.00;;;;;;5063814;28;20010;-65
2023/10/08 13:11:00;;;;;;;;;;;22.90;96.90;;;;;;5064139;28;19939;-65
2023/10/08 13:13:26;;;;;;;;;;;22.90;96.80;;;;;;5062210;28;19925;-65
2023/10/08 13:15:55;;;;;;;;;;;23.00;96.70;;;;;;5063990;28;19924;-65
2023/10/08 13:18:22;;;;;;;;;;;23.00;96.60;;;;;;5063321;28;19924;-64
2023/10/08 13:20:48;;;;;;;;;;;22.90;96.50;;;;;;5063796;28;19931;-65
2023/10/08 13:23:13;;;;;;;;;;;22.90;96.30;;;;;;5063264;28;20941;-64
2023/10/08 13:25:39;;;;;;;;;;;22.90;96.10;;;;;;5063807;28;20121;-65
2023/10/08 13:28:07;;;;;;;;;;;22.90;96.10;;;;;;5062277;28;19925;-64
2023/10/08 13:30:32;;;;;;;;;;;22.80;96.00;;;;;;5062395;28;19924;-64
2023/10/08 13:32:59;;;;;;;;;;;22.70;95.90;;;;;;5062367;28;20415;-65
2023/10/08 13:35:25;;;;;;;;;;;22.70;95.90;;;;;;5062831;28;20044;-65
2023/10/08 13:37:52;;;;;;;;;;;22.60;95.80;;;;;;5063674;28;19998;-64
2023/10/08 13:40:17;;;;;;;;;;;22.60;95.80;;;;;;5061230;28;19916;-63
2023/10/08 13:42:43;;;;;;;;;;;22.50;95.90;;;;;;5061916;28;20418;-64
2023/10/08 13:45:09;;;;;;;;;;;22.40;95.90;;;;;;5061322;28;19931;-63
2023/10/08 13:47:35;;;;;;;;;;;22.30;95.90;;;;;;5060043;28;19925;-65
2023/10/08 13:50:09;;;;;;;;;;;22.30;95.80;;;;;;5062360;28;19924;-64
2023/10/08 13:52:38;;;;;;;;;;;22.20;95.80;;;;;;5062857;28;19924;-65
2023/10/08 13:55:13;;;;;;;;;;;22.10;95.70;;;;;;5062511;28;19924;-64
2023/10/08 13:57:42;;;;;;;;;;;22.00;95.80;;;;;;5061684;28;20322;-65
2023/10/08 14:00:15;;;;;;;;;;;21.90;95.40;;;;;;5061746;28;19930;-65
2023/10/08 14:02:42;;;;;;;;;;;21.90;95.10;;;;;;5061459;28;19969;-64
2023/10/08 14:05:08;;;;;;;;;;;21.80;95.50;;;;;;5062288;28;20037;-65
2023/10/08 14:07:35;;;;;;;;;;;21.70;95.10;;;;;;5062293;28;19928;-63
2023/10/08 14:10:05;;;;;;;;;;;21.70;95.00;;;;;;5062128;28;19927;-63
2023/10/08 14:12:34;;;;;;;;;;;21.60;95.20;;;;;;5062712;28;20342;-65
2023/10/08 14:15:05;;;;;;;;;;;21.50;94.80;;;;;;5060792;28;20391;-63
2023/10/08 14:17:42;;;;;;;;;;;21.50;94.80;;;;;;5062103;28;19924;-65
2023/10/08 14:20:12;;;;;;;;;;;21.40;94.80;;;;;;5061765;28;19939;-64
2023/10/08 14:22:40;;;;;;;;;;;21.30;94.90;;;;;;5062163;28;19924;-65
2023/10/08 14:25:11;;;;;;;;;;;21.30;94.90;;;;;;5062102;28;19973;-64
2023/10/08 14:27:39;;;;;;;;;;;21.20;94.80;;;;;;5062061;28;19924;-65
2023/10/08 14:30:15;;;;;;;;;;;21.20;94.70;;;;;;5061213;28;20329;-64
2023/10/08 14:32:45;;;;;;;;;;;21.10;94.90;;;;;;5061322;28;19928;-65
2023/10/08 14:43:24;;;;;;;;;;;20.80;94.50;;;;;;5061084;28;19935;-65
2023/10/08 14:45:51;;;;;;;;;;;20.80;94.50;;;;;;5061045;28;19928;-64
2023/10/08 14:48:17;;;;;;;;;;;20.70;94.40;;;;;;5059632;28;19924;-64
2023/10/08 14:50:42;;;;;;;;;;;20.70;94.50;;;;;;5061388;28;20482;-64
2023/10/08 14:53:08;;;;;;;;;;;20.60;94.40;;;;;;5062158;28;19936;-64
2023/10/08 14:55:35;;;;;;;;;;;20.60;94.40;;;;;;5061786;28;20058;-63
2023/10/08 14:58:07;;;;;;;;;;;20.50;94.40;;;;;;5062131;28;19946;-65
2023/10/08 15:00:35;;;;;;;;;;;20.50;94.40;;;;;;5061695;28;20635;-63
2023/10/08 15:03:02;;;;;;;;;;;20.50;94.30;;;;;;5061248;28;19924;-64
2023/10/08 15:05:28;;;;;;;;;;;20.50;94.40;;;;;;5061034;28;20831;-63
2023/10/08 15:07:54;;;;;;;;;;;20.40;94.50;;;;;;5061163;28;20007;-64
2023/10/08 15:10:21;;;;;;;;;;;20.40;94.30;;;;;;5061335;28;20304;-63
2023/10/08 15:12:47;;;;;;;;;;;20.40;94.40;;;;;;5061183;28;19928;-64
2023/10/08 15:15:13;;;;;;;;;;;20.30;94.40;;;;;;5059584;28;19946;-64
2023/10/08 15:17:40;;;;;;;;;;;20.30;94.50;;;;;;5060357;28;20950;-63
2023/10/08 15:20:06;;;;;;;;;;;20.30;94.40;;;;;;5060890;28;19924;-64
2023/10/08 15:22:32;;;;;;;;;;;20.20;94.30;;;;;;5060554;28;19920;-64
2023/10/08 15:24:58;;;;;;;;;;;20.20;94.40;;;;;;5059554;28;19924;-63
2023/10/08 15:27:23;;;;;;;;;;;20.20;94.40;;;;;;5059509;28;19924;-64
2023/10/08 15:29:49;;;;;;;;;;;20.20;94.60;;;;;;5060321;28;19931;-64
2023/10/08 15:32:14;;;;;;;;;;;20.10;94.50;;;;;;5059954;28;20345;-63
2023/10/08 15:34:41;;;;;;;;;;;20.10;94.40;;;;;;5061173;28;19985;-64
2023/10/08 15:37:07;;;;;;;;;;;20.00;94.60;;;;;;5060910;28;19939;-64
2023/10/08 15:39:32;;;;;;;;;;;20.00;94.60;;;;;;5059450;28;19977;-64
2023/10/08 15:41:58;;;;;;;;;;;20.00;94.60;;;;;;5019680;28;1165733;-64
2023/10/08 15:44:24;;;;;;;;;;;19.90;94.40;;;;;;5067436;28;20019;-64
2023/10/08 15:46:50;;;;;;;;;;;19.90;94.60;;;;;;5060605;28;19925;-64